createdAt,value
2022-11-16T00:01:41.967Z,9.02
2022-11-16T00:04:11.999Z,9.00
2022-11-16T00:06:39.393Z,9.00
2022-11-16T00:09:26.944Z,9.00
2022-11-16T00:11:59.493Z,8.90
2022-11-16T00:14:30.979Z,8.90
2022-11-16T00:16:59.594Z,8.90
2022-11-16T00:19:28.665Z,8.80
2022-11-16T00:21:55.882Z,8.80
2022-11-16T00:24:23.789Z,8.80
2022-11-16T00:26:56.123Z,8.80
2022-11-16T00:29:25.651Z,8.80
2022-11-16T00:31:53.938Z,8.80
2022-11-16T00:34:22.581Z,8.80
2022-11-16T00:36:49.864Z,8.80
2022-11-16T00:39:17.931Z,8.80
2022-11-16T00:41:47.188Z,8.80
2022-11-16T00:44:14.288Z,8.80
2022-11-16T00:46:41.459Z,8.80
2022-11-16T00:49:08.482Z,8.80
2022-11-16T00:51:37.372Z,8.80
2022-11-16T00:54:08.559Z,8.80
2022-11-16T00:56:37.409Z,8.80
2022-11-16T00:59:05.261Z,8.80
2022-11-16T01:01:32.096Z,8.80
2022-11-16T01:03:58.802Z,8.80
2022-11-16T01:06:25.401Z,8.80
2022-11-16T01:08:52.756Z,8.80
2022-11-16T01:11:38.645Z,8.78
2022-11-16T01:14:08.222Z,8.80
2022-11-16T01:16:35.812Z,8.80
2022-11-16T01:19:03.751Z,8.80
2022-11-16T01:21:30.472Z,8.80
2022-11-16T01:23:57.276Z,8.80
2022-11-16T01:26:24.694Z,8.80
2022-11-16T01:28:51.926Z,8.80
2022-11-16T01:31:18.772Z,8.80
2022-11-16T01:33:46.883Z,8.82
2022-11-16T01:36:19.495Z,8.88
2022-11-16T01:38:47.432Z,8.88
2022-11-16T01:41:21.227Z,8.88
2022-11-16T01:44:33.516Z,8.90
2022-11-16T01:47:14.665Z,8.90
2022-11-16T01:49:47.906Z,8.90
2022-11-16T01:52:25.168Z,8.92
2022-11-16T01:54:54.025Z,9.00
2022-11-16T01:57:28.219Z,9.00
2022-11-16T02:00:08.376Z,9.00
2022-11-16T02:02:43.140Z,9.00
2022-11-16T02:05:22.731Z,9.00
2022-11-16T02:08:46.852Z,9.00
2022-11-16T02:11:48.190Z,9.00
2022-11-16T02:14:39.610Z,9.00
2022-11-16T02:17:53.639Z,9.00
2022-11-16T02:20:39.072Z,9.00
2022-11-16T02:23:36.621Z,9.00
2022-11-16T02:26:20.751Z,8.96
2022-11-16T02:29:15.379Z,8.94
2022-11-16T02:31:53.920Z,8.90
2022-11-16T02:34:23.708Z,8.90
2022-11-16T02:36:54.824Z,8.90
2022-11-16T02:39:27.353Z,8.82
2022-11-16T02:41:55.993Z,8.80
2022-11-16T02:44:33.812Z,8.80
2022-11-16T02:47:07.521Z,8.80
2022-11-16T02:49:41.192Z,8.80
2022-11-16T02:52:09.762Z,8.80
2022-11-16T02:54:36.449Z,8.80
2022-11-16T02:57:03.010Z,8.78
2022-11-16T02:59:38.195Z,8.70
2022-11-16T03:02:26.072Z,8.70
2022-11-16T03:05:03.331Z,8.70
2022-11-16T03:07:40.947Z,8.70
2022-11-16T03:10:08.116Z,8.70
2022-11-16T03:12:36.270Z,8.70
2022-11-16T03:15:11.515Z,8.60
2022-11-16T03:17:44.695Z,8.50
2022-11-16T03:20:27.805Z,8.50
2022-11-16T03:22:59.413Z,8.48
2022-11-16T03:25:37.069Z,8.50
2022-11-16T03:28:29.568Z,8.50
2022-11-16T03:31:22.799Z,8.50
2022-11-16T03:33:58.578Z,8.60
2022-11-16T03:36:33.944Z,8.60
2022-11-16T03:39:11.239Z,8.50
2022-11-16T03:41:42.168Z,8.50
2022-11-16T03:44:12.460Z,8.50
2022-11-16T03:46:42.479Z,8.60
2022-11-16T03:49:10.249Z,8.62
2022-11-16T03:51:37.805Z,8.70
2022-11-16T03:54:05.690Z,8.70
2022-11-16T03:56:33.069Z,8.62
2022-11-16T03:58:59.680Z,8.56
2022-11-16T04:01:26.472Z,8.40
2022-11-16T04:03:53.205Z,8.30
2022-11-16T04:06:38.960Z,8.20
2022-11-16T04:09:23.905Z,8.20
2022-11-16T04:12:09.709Z,8.10
2022-11-16T04:14:55.864Z,8.06
2022-11-16T04:17:44.118Z,8.00
2022-11-16T04:20:32.816Z,7.90
2022-11-16T04:23:32.173Z,7.90
2022-11-16T04:25:59.365Z,7.90
2022-11-16T04:28:31.429Z,7.90
2022-11-16T04:31:21.789Z,7.90
2022-11-16T04:34:12.384Z,7.80
2022-11-16T04:37:01.631Z,7.80
2022-11-16T04:39:28.643Z,7.78
2022-11-16T04:42:14.513Z,7.70
2022-11-16T04:45:00.955Z,7.70
2022-11-16T04:47:32.655Z,7.70
2022-11-16T04:49:59.272Z,7.70
2022-11-16T04:52:26.078Z,7.70
2022-11-16T04:54:53.584Z,7.60
2022-11-16T04:57:20.226Z,7.60
2022-11-16T04:59:48.126Z,7.60
2022-11-16T05:02:15.253Z,7.50
2022-11-16T05:04:51.824Z,7.50
2022-11-16T05:07:19.084Z,7.50
2022-11-16T05:09:48.259Z,7.50
2022-11-16T05:12:26.821Z,7.60
2022-11-16T05:14:56.210Z,7.70
2022-11-16T05:17:26.270Z,7.80
2022-11-16T05:20:12.321Z,7.90
2022-11-16T05:22:45.392Z,7.96
2022-11-16T05:25:12.023Z,8.00
2022-11-16T05:27:38.814Z,8.00
2022-11-16T05:30:06.567Z,8.10
2022-11-16T05:32:33.779Z,8.10
2022-11-16T05:35:00.621Z,8.18
2022-11-16T05:37:27.463Z,8.20
2022-11-16T05:39:54.880Z,8.24
2022-11-16T05:42:23.443Z,8.30
2022-11-16T05:44:50.150Z,8.30
2022-11-16T05:47:17.538Z,8.40
2022-11-16T05:49:44.704Z,8.36
2022-11-16T05:52:12.682Z,8.40
2022-11-16T05:54:39.759Z,8.30
2022-11-16T05:57:06.433Z,8.40
2022-11-16T05:59:33.993Z,8.40
2022-11-16T06:02:01.075Z,8.50
2022-11-16T06:04:27.855Z,8.50
2022-11-16T06:06:54.622Z,8.56
2022-11-16T06:09:24.948Z,8.60
2022-11-16T06:11:54.670Z,8.60
2022-11-16T06:14:21.406Z,8.60
2022-11-16T06:16:48.027Z,8.70
2022-11-16T06:19:14.675Z,8.70
2022-11-16T06:21:41.422Z,8.70
2022-11-16T06:24:13.450Z,8.72
2022-11-16T06:26:41.512Z,8.80
2022-11-16T06:29:08.201Z,8.80
2022-11-16T06:31:35.285Z,8.82
2022-11-16T06:34:02.514Z,8.86
2022-11-16T06:36:29.531Z,8.90
2022-11-16T06:39:00.885Z,8.90
2022-11-16T06:41:28.532Z,8.90
2022-11-16T06:43:55.820Z,9.00
2022-11-16T06:46:25.701Z,9.00
2022-11-16T06:48:52.835Z,9.00
2022-11-16T06:51:19.520Z,9.00
2022-11-16T06:53:46.531Z,9.10
2022-11-16T06:56:15.449Z,9.10
2022-11-16T06:58:46.102Z,9.10
2022-11-16T07:01:13.506Z,9.20
2022-11-16T07:03:41.394Z,9.20
2022-11-16T07:06:11.252Z,9.20
2022-11-16T07:08:39.335Z,9.22
2022-11-16T07:11:08.635Z,9.30
2022-11-16T07:13:37.874Z,9.30
2022-11-16T07:16:10.848Z,9.40
2022-11-16T07:18:41.837Z,9.40
2022-11-16T07:21:14.300Z,9.40
2022-11-16T07:23:41.178Z,9.50
2022-11-16T07:26:10.725Z,9.50
2022-11-16T07:28:47.753Z,9.58
2022-11-16T07:31:16.593Z,9.60
2022-11-16T07:33:43.526Z,9.68
2022-11-16T07:36:38.967Z,9.70
2022-11-16T07:39:07.018Z,9.80
2022-11-16T07:41:33.641Z,9.80
2022-11-16T07:44:12.100Z,9.80
2022-11-16T07:46:48.484Z,9.90
2022-11-16T07:49:17.935Z,9.90
2022-11-16T07:51:52.309Z,9.90
2022-11-16T07:54:39.184Z,9.96
2022-11-16T07:57:05.948Z,10.00
2022-11-16T07:59:33.031Z,10.00
2022-11-16T08:02:00.842Z,10.02
2022-11-16T08:04:27.498Z,10.06
2022-11-16T08:06:54.480Z,10.10
2022-11-16T08:09:21.139Z,10.10
2022-11-16T08:11:48.442Z,10.14
2022-11-16T08:14:15.729Z,10.20
2022-11-16T08:16:42.470Z,10.20
2022-11-16T08:19:13.270Z,10.28
2022-11-16T08:21:39.922Z,10.30
2022-11-16T08:24:07.608Z,10.30
2022-11-16T08:26:36.914Z,10.40
2022-11-16T08:29:07.500Z,10.40
2022-11-16T08:31:35.825Z,10.50
2022-11-16T08:34:12.480Z,10.50
2022-11-16T08:36:41.985Z,10.52
2022-11-16T08:39:08.799Z,10.60
2022-11-16T08:41:37.604Z,10.60
2022-11-16T08:44:05.527Z,10.60
2022-11-16T08:46:33.693Z,10.70
2022-11-16T08:49:07.745Z,10.70
2022-11-16T08:51:34.471Z,10.70
2022-11-16T08:54:05.167Z,10.70
2022-11-16T08:56:32.773Z,10.70
2022-11-16T08:58:59.746Z,10.80
2022-11-16T09:01:29.655Z,10.80
2022-11-16T09:03:56.905Z,10.80
2022-11-16T09:06:26.248Z,10.82
2022-11-16T09:08:53.030Z,10.90
2022-11-16T09:11:22.849Z,10.90
2022-11-16T09:13:52.907Z,10.90
2022-11-16T09:16:21.623Z,10.98
2022-11-16T09:18:50.730Z,11.00
2022-11-16T09:21:23.738Z,11.10
2022-11-16T09:24:15.342Z,11.10
2022-11-16T09:26:42.332Z,11.20
2022-11-16T09:29:14.859Z,11.20
2022-11-16T09:31:41.983Z,11.30
2022-11-16T09:34:08.923Z,11.40
2022-11-16T09:36:35.592Z,11.40
2022-11-16T09:39:29.476Z,11.40
2022-11-16T09:42:00.559Z,11.50
2022-11-16T09:44:57.458Z,11.40
2022-11-16T09:47:41.513Z,11.50
2022-11-16T09:50:23.244Z,11.50
2022-11-16T09:52:52.845Z,11.50
2022-11-16T09:55:32.743Z,11.50
2022-11-16T09:58:04.176Z,11.60
2022-11-16T10:00:31.587Z,11.60
2022-11-16T10:03:11.355Z,11.60
2022-11-16T10:06:08.653Z,11.60
2022-11-16T10:08:47.154Z,11.60
2022-11-16T10:12:05.399Z,11.58
2022-11-16T10:15:15.896Z,11.60
2022-11-16T10:18:24.650Z,11.58
2022-11-16T10:21:09.072Z,11.60
2022-11-16T10:24:12.815Z,11.60
2022-11-16T10:27:16.578Z,11.60
2022-11-16T10:30:07.548Z,11.68
2022-11-16T10:32:49.086Z,11.60
2022-11-16T10:35:24.326Z,11.66
2022-11-16T10:37:52.170Z,11.70
2022-11-16T10:40:25.757Z,11.70
2022-11-16T10:43:16.327Z,11.70
2022-11-16T10:45:57.986Z,11.60
2022-11-16T10:48:42.439Z,11.70
2022-11-16T10:51:10.760Z,11.70
2022-11-16T10:53:41.478Z,11.70
2022-11-16T10:56:19.786Z,11.66
2022-11-16T10:59:01.581Z,11.70
2022-11-16T11:01:53.292Z,11.70
2022-11-16T11:04:24.612Z,11.80
2022-11-16T11:07:22.576Z,11.90
2022-11-16T11:09:54.434Z,12.00
2022-11-16T11:12:38.325Z,12.00
2022-11-16T11:15:11.083Z,12.10
2022-11-16T11:17:48.091Z,12.20
2022-11-16T11:20:17.606Z,12.30
2022-11-16T11:23:19.307Z,12.30
2022-11-16T11:26:00.205Z,12.40
2022-11-16T11:28:37.075Z,12.50
2022-11-16T11:31:11.752Z,12.50
2022-11-16T11:33:51.181Z,12.50
2022-11-16T11:36:29.236Z,12.50
2022-11-16T11:39:11.322Z,12.60
2022-11-16T11:41:47.080Z,12.60
2022-11-16T11:44:13.593Z,12.60
2022-11-16T11:50:19.608Z,12.60
2022-11-16T11:53:05.548Z,12.70
2022-11-16T11:55:32.253Z,12.70
2022-11-16T11:58:01.805Z,12.70
2022-11-16T12:00:50.638Z,12.70
2022-11-16T12:03:59.621Z,12.80
2022-11-16T12:07:17.467Z,12.80
2022-11-16T12:10:07.349Z,12.80
2022-11-16T12:13:24.590Z,12.80
2022-11-16T12:15:57.888Z,12.80
2022-11-16T12:19:02.717Z,12.80
2022-11-16T12:21:55.856Z,12.82
2022-11-16T12:25:01.549Z,12.80
2022-11-16T12:27:51.417Z,12.80
2022-11-16T12:30:21.859Z,12.80
2022-11-16T12:33:23.314Z,12.80
2022-11-16T12:36:08.645Z,12.70
2022-11-16T12:38:41.041Z,12.70
2022-11-16T12:41:10.664Z,12.60
2022-11-16T12:43:56.476Z,12.60
2022-11-16T12:47:01.613Z,12.60
2022-11-16T12:49:43.362Z,12.60
2022-11-16T12:52:57.585Z,12.66
2022-11-16T12:55:31.339Z,12.70
2022-11-16T12:58:25.888Z,12.78
2022-11-16T13:01:07.804Z,12.80
2022-11-16T13:03:53.093Z,12.86
2022-11-16T13:06:29.373Z,12.90
2022-11-16T13:09:16.742Z,12.94
2022-11-16T13:11:55.897Z,13.10
2022-11-16T13:14:30.300Z,13.20
2022-11-16T13:17:00.849Z,13.40
2022-11-16T13:19:28.189Z,13.60
2022-11-16T13:22:06.890Z,13.70
2022-11-16T13:25:00.650Z,13.90
2022-11-16T13:27:37.421Z,13.92
2022-11-16T13:30:22.429Z,14.00
2022-11-16T13:33:29.799Z,14.00
2022-11-16T13:35:56.430Z,14.00
2022-11-16T13:38:53.356Z,14.04
2022-11-16T13:41:43.234Z,14.00
2022-11-16T13:44:23.903Z,13.90
2022-11-16T13:46:59.664Z,13.80
2022-11-16T13:49:42.451Z,13.76
2022-11-16T13:52:35.680Z,13.74
2022-11-16T13:55:40.231Z,13.72
2022-11-16T13:58:11.277Z,13.80
2022-11-16T14:00:39.945Z,13.70
2022-11-16T14:03:15.464Z,13.70
2022-11-16T14:05:48.265Z,13.60
2022-11-16T14:08:24.055Z,13.46
2022-11-16T14:10:50.601Z,13.40
2022-11-16T14:13:55.510Z,13.40
2022-11-16T14:16:23.216Z,13.30
2022-11-16T14:18:56.324Z,13.20
2022-11-16T14:21:38.423Z,13.20
2022-11-16T14:24:29.116Z,13.20
2022-11-16T14:27:30.582Z,13.10
2022-11-16T14:30:23.383Z,13.00
2022-11-16T14:32:53.997Z,12.88
2022-11-16T14:35:38.881Z,12.86
2022-11-16T14:38:35.913Z,12.80
2022-11-16T14:41:06.862Z,12.70
2022-11-16T14:43:44.058Z,12.70
2022-11-16T14:46:35.187Z,12.60
2022-11-16T14:49:02.961Z,12.60
2022-11-16T14:51:34.970Z,12.70
2022-11-16T14:54:23.671Z,12.62
2022-11-16T14:57:06.417Z,12.60
2022-11-16T14:59:33.889Z,12.50
2022-11-16T15:02:22.628Z,12.46
2022-11-16T15:04:51.830Z,12.36
2022-11-16T15:07:22.176Z,12.30
2022-11-16T15:09:53.009Z,12.26
2022-11-16T15:12:41.726Z,12.20
2022-11-16T15:15:11.146Z,12.20
2022-11-16T15:18:02.813Z,12.20
2022-11-16T15:20:36.625Z,12.10
2022-11-16T15:23:06.323Z,12.00
2022-11-16T15:25:55.277Z,11.90
2022-11-16T15:28:27.245Z,11.86
2022-11-16T15:31:01.374Z,11.80
2022-11-16T15:33:36.075Z,11.70
2022-11-16T15:36:33.473Z,11.60
2022-11-16T15:39:02.374Z,11.60
2022-11-16T15:41:29.388Z,11.50
2022-11-16T15:44:13.892Z,11.50
2022-11-16T15:46:45.661Z,11.50
2022-11-16T15:49:30.261Z,11.50
2022-11-16T15:52:01.050Z,11.48
2022-11-16T15:54:55.266Z,11.40
2022-11-16T15:57:24.087Z,11.40
2022-11-16T15:59:57.535Z,11.30
2022-11-16T16:02:28.740Z,11.30
2022-11-16T16:04:55.501Z,11.20
2022-11-16T16:07:42.509Z,11.20
2022-11-16T16:10:18.381Z,11.18
2022-11-16T16:12:53.636Z,11.10
2022-11-16T16:15:36.622Z,11.02
2022-11-16T16:18:14.128Z,11.00
2022-11-16T16:20:47.735Z,10.90
2022-11-16T16:23:20.601Z,10.90
2022-11-16T16:25:50.604Z,10.82
2022-11-16T16:28:17.631Z,10.80
2022-11-16T16:30:44.337Z,10.80
2022-11-16T16:33:19.474Z,10.80
2022-11-16T16:35:49.696Z,10.70
2022-11-16T16:38:16.462Z,10.70
2022-11-16T16:40:43.106Z,10.62
2022-11-16T16:43:09.668Z,10.60
2022-11-16T16:45:41.477Z,10.60
2022-11-16T16:48:14.107Z,10.50
2022-11-16T16:50:40.712Z,10.48
2022-11-16T16:53:11.497Z,10.40
2022-11-16T16:55:38.265Z,10.40
2022-11-16T16:58:05.871Z,10.40
2022-11-16T17:00:32.596Z,10.40
2022-11-16T17:02:59.169Z,10.40
2022-11-16T17:05:26.593Z,10.34
2022-11-16T17:07:56.314Z,10.30
2022-11-16T17:10:23.118Z,10.30
2022-11-16T17:12:53.596Z,10.30
2022-11-16T17:15:20.265Z,10.30
2022-11-16T17:17:47.384Z,10.30
2022-11-16T17:20:14.787Z,10.20
2022-11-16T17:22:41.882Z,10.20
2022-11-16T17:25:10.748Z,10.10
2022-11-16T17:27:37.332Z,10.10
2022-11-16T17:30:04.747Z,10.10
2022-11-16T17:32:31.431Z,10.10
2022-11-16T17:34:58.029Z,10.10
2022-11-16T17:37:24.622Z,10.06
2022-11-16T17:39:51.199Z,10.00
2022-11-16T17:42:17.795Z,10.00
2022-11-16T17:44:44.458Z,10.00
2022-11-16T17:47:11.114Z,10.00
2022-11-16T17:49:37.773Z,9.92
2022-11-16T17:52:04.892Z,9.90
2022-11-16T17:54:31.919Z,9.90
2022-11-16T17:56:58.495Z,9.90
2022-11-16T17:59:29.418Z,9.82
2022-11-16T18:01:58.013Z,9.80
2022-11-16T18:04:25.547Z,9.80
2022-11-16T18:06:52.198Z,9.70
2022-11-16T18:09:18.982Z,9.70
2022-11-16T18:11:45.770Z,9.70
2022-11-16T18:14:12.503Z,9.60
2022-11-16T18:16:42.360Z,9.60
2022-11-16T18:19:11.970Z,9.60
2022-11-16T18:21:41.214Z,9.52
2022-11-16T18:24:08.476Z,9.50
2022-11-16T18:26:35.709Z,9.50
2022-11-16T18:29:02.836Z,9.44
2022-11-16T18:31:32.806Z,9.40
2022-11-16T18:34:01.309Z,9.40
2022-11-16T18:36:27.909Z,9.40
2022-11-16T18:38:54.543Z,9.40
2022-11-16T18:41:24.717Z,9.30
2022-11-16T18:43:54.718Z,9.30
2022-11-16T18:46:25.691Z,9.24
2022-11-16T18:48:52.553Z,9.20
2022-11-16T18:51:20.920Z,9.20
2022-11-16T18:53:47.728Z,9.20
2022-11-16T18:56:15.614Z,9.20
2022-11-16T18:58:50.242Z,9.18
2022-11-16T19:01:21.955Z,9.10
2022-11-16T19:03:50.112Z,9.10
2022-11-16T19:06:17.831Z,9.10
2022-11-16T19:08:49.009Z,9.00
2022-11-16T19:11:20.883Z,9.00
2022-11-16T19:14:04.293Z,9.00
2022-11-16T19:16:31.632Z,9.00
2022-11-16T19:18:58.261Z,8.90
2022-11-16T19:21:25.274Z,8.90
2022-11-16T19:23:54.450Z,8.90
2022-11-16T19:26:25.215Z,8.90
2022-11-16T19:28:53.313Z,8.90
2022-11-16T19:31:24.234Z,8.80
2022-11-16T19:34:05.827Z,8.80
2022-11-16T19:36:35.623Z,8.80
2022-11-16T19:39:02.742Z,8.80
2022-11-16T19:41:29.543Z,8.80
2022-11-16T19:44:00.026Z,8.70
2022-11-16T19:46:30.130Z,8.70
2022-11-16T19:48:56.976Z,8.60
2022-11-16T19:51:29.866Z,8.60
2022-11-16T19:53:58.499Z,8.60
2022-11-16T19:56:25.696Z,8.50
2022-11-16T19:58:52.465Z,8.48
2022-11-16T20:01:27.480Z,8.40
2022-11-16T20:03:57.195Z,8.40
2022-11-16T20:06:30.106Z,8.36
2022-11-16T20:09:08.306Z,8.30
2022-11-16T20:11:37.893Z,8.30
2022-11-16T20:14:07.678Z,8.30
2022-11-16T20:16:39.272Z,8.20
2022-11-16T20:19:08.252Z,8.20
2022-11-16T20:21:41.438Z,8.20
2022-11-16T20:24:15.241Z,8.20
2022-11-16T20:26:48.278Z,8.20
2022-11-16T20:29:18.165Z,8.12
2022-11-16T20:31:46.598Z,8.10
2022-11-16T20:34:16.172Z,8.10
2022-11-16T20:36:46.146Z,8.10
2022-11-16T20:39:15.929Z,8.04
2022-11-16T20:41:44.037Z,8.00
2022-11-16T20:44:16.736Z,8.00
2022-11-16T20:46:45.230Z,8.00
2022-11-16T20:49:12.406Z,8.00
2022-11-16T20:51:39.639Z,8.00
2022-11-16T20:54:06.864Z,7.90
2022-11-16T20:56:34.363Z,7.90
2022-11-16T20:59:01.721Z,7.90
2022-11-16T21:01:30.966Z,7.90
2022-11-16T21:04:01.321Z,7.82
2022-11-16T21:06:28.701Z,7.80
2022-11-16T21:08:55.954Z,7.80
2022-11-16T21:11:27.068Z,7.80
2022-11-16T21:14:12.717Z,7.80
2022-11-16T21:16:40.267Z,7.80
2022-11-16T21:19:07.586Z,7.80
2022-11-16T21:21:34.384Z,7.74
2022-11-16T21:24:01.085Z,7.70
2022-11-16T21:26:33.365Z,7.72
2022-11-16T21:29:01.750Z,7.70
2022-11-16T21:31:32.565Z,7.70
2022-11-16T21:34:02.998Z,7.70
2022-11-16T21:36:32.084Z,7.70
2022-11-16T21:38:59.317Z,7.70
2022-11-16T21:41:26.753Z,7.60
2022-11-16T21:43:53.613Z,7.60
2022-11-16T21:46:26.124Z,7.60
2022-11-16T21:48:56.652Z,7.60
2022-11-16T21:51:27.002Z,7.50
2022-11-16T21:53:53.935Z,7.50
2022-11-16T21:56:24.325Z,7.50
2022-11-16T21:58:55.559Z,7.50
2022-11-16T22:01:24.047Z,7.50
2022-11-16T22:04:10.969Z,7.40
2022-11-16T22:06:56.247Z,7.40
2022-11-16T22:09:22.936Z,7.40
2022-11-16T22:11:49.601Z,7.30
2022-11-16T22:14:16.292Z,7.30
2022-11-16T22:16:42.889Z,7.30
2022-11-16T22:19:09.561Z,7.30
2022-11-16T22:21:36.200Z,7.30
2022-11-16T22:24:02.947Z,7.24
2022-11-16T22:26:29.585Z,7.20
2022-11-16T22:28:56.315Z,7.20
2022-11-16T22:31:22.935Z,7.20
2022-11-16T22:33:53.646Z,7.20
2022-11-16T22:36:20.397Z,7.20
2022-11-16T22:38:47.024Z,7.18
2022-11-16T22:41:13.599Z,7.10
2022-11-16T22:43:40.493Z,7.10
2022-11-16T22:46:07.604Z,7.10
2022-11-16T22:48:39.749Z,7.06
2022-11-16T22:51:12.242Z,7.00
2022-11-16T22:53:38.909Z,6.98
2022-11-16T22:56:10.421Z,6.90
2022-11-16T22:58:38.953Z,6.90
2022-11-16T23:01:08.046Z,6.90
2022-11-16T23:03:36.346Z,6.90
2022-11-16T23:06:04.405Z,6.80
2022-11-16T23:08:31.412Z,6.80
2022-11-16T23:11:28.612Z,6.80
2022-11-16T23:14:14.078Z,6.80
2022-11-16T23:16:41.983Z,6.70
2022-11-16T23:19:30.661Z,6.70
2022-11-16T23:22:17.073Z,6.70
2022-11-16T23:25:02.973Z,6.70
2022-11-16T23:27:50.247Z,6.70
2022-11-16T23:30:17.125Z,6.60
2022-11-16T23:32:43.800Z,6.60
2022-11-16T23:35:12.293Z,6.60
2022-11-16T23:38:00.784Z,6.60
2022-11-16T23:40:31.595Z,6.60
2022-11-16T23:43:18.199Z,6.60
2022-11-16T23:45:45.974Z,6.60
2022-11-16T23:48:16.103Z,6.60
2022-11-16T23:50:45.307Z,6.60
2022-11-16T23:53:13.197Z,6.54
2022-11-16T23:55:40.629Z,6.50
2022-11-16T23:58:13.895Z,6.50
